Time;durP1;ratioP1;P1;durP2;ratioP2;P2;SDS_P1;SDS_P2;PMS_P1;PMS_P2;Temp;Humidity;BMP_temperature;BMP_pressure;BME280_temperature;BME280_humidity;BME280_pressure;Samples;Min_cycle;Max_cycle;Signal;HPM_P1;HPM_P2
2023/08/01 00:01:43;;;;;;;0.08;0.08;;;;;;;15.48;100.00;99219.31;4937107;29;20043;-87
2023/08/01 00:04:09;;;;;;;0.38;0.38;;;;;;;15.50;100.00;99213.94;4931185;29;20071;-84
2023/08/01 00:06:36;;;;;;;1.33;0.30;;;;;;;15.48;100.00;99207.91;4932859;29;20055;-82
2023/08/01 00:09:02;;;;;;;0.10;0.10;;;;;;;15.45;100.00;99189.59;4931612;29;20294;-83
2023/08/01 00:11:29;;;;;;;1.65;0.28;;;;;;;15.45;100.00;99194.88;4938276;29;20048;-86
2023/08/01 00:13:55;;;;;;;0.52;0.22;;;;;;;15.45;100.00;99179.03;4924054;29;20040;-82
2023/08/01 00:16:22;;;;;;;0.50;0.50;;;;;;;15.49;100.00;99173.53;4934815;29;20075;-83
2023/08/01 00:18:48;;;;;;;1.60;0.40;;;;;;;15.51;100.00;99171.69;4941398;28;20043;-83
2023/08/01 00:21:15;;;;;;;0.40;0.40;;;;;;;15.53;100.00;99168.97;4938461;29;20043;-83
2023/08/01 00:23:42;;;;;;;0.55;0.55;;;;;;;15.55;100.00;99165.31;4933960;29;20039;-82
2023/08/01 00:26:08;;;;;;;2.08;0.50;;;;;;;15.59;100.00;99165.13;4933338;29;20135;-82
2023/08/01 00:28:35;;;;;;;0.75;0.60;;;;;;;15.61;100.00;99155.38;4934717;29;20079;-84
2023/08/01 00:31:09;;;;;;;0.82;0.57;;;;;;;15.62;100.00;99154.41;4936520;29;20091;-84
2023/08/01 00:33:36;;;;;;;0.40;0.40;;;;;;;15.63;100.00;99145.56;4937171;29;20043;-83
2023/08/01 00:36:08;;;;;;;1.65;0.68;;;;;;;15.64;100.00;99134.94;4934960;29;20071;-83
2023/08/01 00:38:35;;;;;;;1.20;0.80;;;;;;;15.67;100.00;99120.72;4956636;28;20059;-83
2023/08/01 00:41:01;;;;;;;2.72;0.50;;;;;;;15.65;100.00;99120.81;4949359;29;20039;-83
2023/08/01 00:43:28;;;;;;;1.08;0.32;;;;;;;15.67;100.00;99115.44;4937516;29;20487;-84
2023/08/01 00:46:00;;;;;;;1.55;0.40;;;;;;;15.68;100.00;99118.03;4934212;29;20043;-84
2023/08/01 00:48:27;;;;;;;0.40;0.40;;;;;;;15.70;100.00;99123.22;4931156;29;20047;-84
2023/08/01 00:50:53;;;;;;;1.83;0.80;;;;;;;15.70;100.00;99118.78;4916017;29;20039;-84
2023/08/01 00:53:20;;;;;;;0.77;0.40;;;;;;;15.71;100.00;99115.22;4918838;29;20143;-86
2023/08/01 00:55:47;;;;;;;1.90;0.63;;;;;;;15.74;100.00;99113.34;4938928;28;20741;-84
2023/08/01 00:58:13;;;;;;;1.48;0.70;;;;;;;15.74;100.00;99106.28;4923770;29;20052;-85
2023/08/01 01:00:40;;;;;;;0.77;0.77;;;;;;;15.78;100.00;99115.72;4937420;29;20043;-84
2023/08/01 01:03:07;;;;;;;0.57;0.57;;;;;;;15.79;100.00;99114.78;4943073;29;20043;-84
2023/08/01 01:05:37;;;;;;;0.95;0.85;;;;;;;15.80;100.00;99107.72;4938263;28;20053;-84
2023/08/01 01:08:05;;;;;;;0.95;0.90;;;;;;;15.81;100.00;99106.81;4952848;28;20035;-83
2023/08/01 01:10:32;;;;;;;0.85;0.85;;;;;;;15.81;100.00;99104.16;4921314;28;20043;-85
2023/08/01 01:12:59;;;;;;;1.55;0.70;;;;;;;15.82;100.00;99104.09;4934347;29;20144;-87
2023/08/01 01:15:25;;;;;;;1.02;0.90;;;;;;;15.82;100.00;99098.81;4948041;28;20055;-84
2023/08/01 01:17:53;;;;;;;0.60;0.60;;;;;;;15.83;100.00;99091.75;4928726;28;20047;-84
2023/08/01 01:20:24;;;;;;;0.70;0.70;;;;;;;15.81;100.00;99097.13;4924308;29;20516;-88
2023/08/01 01:22:53;;;;;;;1.35;0.80;;;;;;;15.83;100.00;99094.41;4922281;29;20038;-83
2023/08/01 01:25:21;;;;;;;0.57;0.57;;;;;;;15.82;100.00;99084.78;4930392;29;20051;-83
2023/08/01 01:27:50;;;;;;;0.80;0.80;;;;;;;15.81;100.00;99083.94;4918717;28;20122;-86
2023/08/01 01:30:19;;;;;;;2.80;1.48;;;;;;;15.81;100.00;99083.06;4934598;29;20130;-84
2023/08/01 01:32:49;;;;;;;0.52;0.50;;;;;;;15.81;100.00;99085.69;4935328;28;20063;-85
2023/08/01 01:35:15;;;;;;;0.55;0.55;;;;;;;15.83;100.00;99076.75;4936653;29;20126;-82
2023/08/01 01:37:42;;;;;;;0.57;0.57;;;;;;;15.81;100.00;99065.47;4936427;29;20067;-85
2023/08/01 01:40:09;;;;;;;0.43;0.40;;;;;;;15.82;100.00;99068.94;4937871;29;20091;-86
2023/08/01 01:42:35;;;;;;;0.32;0.32;;;;;;;15.83;100.00;99068.00;4930964;28;20051;-85
2023/08/01 01:45:02;;;;;;;2.00;0.52;;;;;;;15.81;100.00;99064.59;4913674;29;20047;-83
2023/08/01 01:47:28;;;;;;;1.85;0.40;;;;;;;15.79;100.00;99056.75;4926263;29;20051;-86
2023/08/01 01:49:55;;;;;;;1.30;0.50;;;;;;;15.78;100.00;99062.94;4934414;29;20043;-85
2023/08/01 01:52:22;;;;;;;0.30;0.30;;;;;;;15.77;100.00;99050.69;4950602;28;20107;-83
2023/08/01 01:54:48;;;;;;;0.45;0.40;;;;;;;15.79;100.00;99048.00;4958315;28;20066;-86
2023/08/01 01:57:15;;;;;;;0.30;0.30;;;;;;;15.77;100.00;99047.22;4943381;29;20070;-85
2023/08/01 01:59:41;;;;;;;3.30;0.82;;;;;;;15.76;100.00;99046.38;4937526;28;20118;-83
2023/08/01 02:02:08;;;;;;;0.65;0.35;;;;;;;15.77;100.00;99039.28;4935988;29;20085;-83
2023/08/01 02:04:34;;;;;;;0.35;0.35;;;;;;;15.77;100.00;99041.94;4925160;29;20130;-89
2023/08/01 02:07:03;;;;;;;0.65;0.30;;;;;;;15.76;100.00;99029.66;4948867;28;20509;-83
2023/08/01 02:09:30;;;;;;;1.65;0.40;;;;;;;15.76;100.00;99027.03;4937832;29;20039;-83
2023/08/01 02:11:56;;;;;;;0.30;0.30;;;;;;;15.75;100.00;99025.31;4925277;28;20053;-83
2023/08/01 02:14:23;;;;;;;1.08;0.30;;;;;;;15.73;100.00;99014.88;4935782;28;20039;-83
2023/08/01 02:16:49;;;;;;;0.38;0.38;;;;;;;15.71;100.00;99009.69;4932168;28;20047;-83
2023/08/01 02:19:16;;;;;;;0.32;0.32;;;;;;;15.68;100.00;99007.22;4925378;29;20411;-84
2023/08/01 02:21:42;;;;;;;0.20;0.20;;;;;;;15.68;100.00;99017.78;4934964;29;20483;-85
2023/08/01 02:24:09;;;;;;;0.88;0.30;;;;;;;15.66;100.00;99005.63;4930585;29;20387;-83
2023/08/01 02:26:36;;;;;;;0.65;0.20;;;;;;;15.64;100.00;99018.88;4942034;29;20039;-84
2023/08/01 02:29:02;;;;;;;1.45;0.20;;;;;;;15.67;100.00;99012.56;4916577;29;20044;-83
2023/08/01 02:31:29;;;;;;;0.30;0.30;;;;;;;15.65;100.00;99007.38;4935303;28;20051;-85
2023/08/01 02:33:55;;;;;;;1.58;0.30;;;;;;;15.66;100.00;99011.72;4954020;28;20043;-86
2023/08/01 02:36:22;;;;;;;0.22;0.20;;;;;;;15.68;100.00;98998.44;4940944;28;20043;-85
2023/08/01 02:38:49;;;;;;;2.08;0.75;;;;;;;15.67;100.00;98994.09;4935982;29;20738;-83
2023/08/01 02:41:15;;;;;;;0.40;0.17;;;;;;;15.67;100.00;99000.25;4932632;29;20100;-83
2023/08/01 02:43:42;;;;;;;2.67;0.20;;;;;;;15.65;100.00;98998.63;4931470;29;20044;-83
2023/08/01 02:46:08;;;;;;;0.35;0.10;;;;;;;15.57;100.00;98979.75;4913242;29;20047;-84
2023/08/01 02:48:35;;;;;;;2.20;0.10;;;;;;;15.53;100.00;98981.72;4914801;29;20230;-85
2023/08/01 02:51:02;;;;;;;0.88;0.22;;;;;;;15.50;100.00;98972.19;4929213;29;20115;-83
2023/08/01 02:53:29;;;;;;;0.35;0.35;;;;;;;15.46;100.00;98965.41;4928928;29;20138;-85
2023/08/01 02:55:56;;;;;;;0.22;0.15;;;;;;;15.43;100.00;98973.47;4928590;29;20048;-84
2023/08/01 02:58:22;;;;;;;1.48;0.20;;;;;;;15.41;100.00;98969.19;4932832;29;20433;-83
2023/08/01 03:00:49;;;;;;;0.17;0.17;;;;;;;15.39;100.00;98967.50;4929528;29;20039;-83
2023/08/01 03:03:16;;;;;;;0.30;0.30;;;;;;;15.38;100.00;98971.09;4916314;29;20096;-83
2023/08/01 03:05:45;;;;;;;1.80;0.95;;;;;;;15.36;100.00;98974.75;4930968;29;20090;-83
2023/08/01 03:08:12;;;;;;;0.50;0.50;;;;;;;15.35;100.00;98967.78;4931860;29;20043;-83
2023/08/01 03:10:39;;;;;;;0.30;0.15;;;;;;;15.34;100.00;98972.22;4936318;29;20519;-84
2023/08/01 03:13:06;;;;;;;1.48;0.10;;;;;;;15.33;100.00;98967.00;4928030;29;20084;-87
2023/08/01 03:15:33;;;;;;;2.53;0.20;;;;;;;15.31;100.00;98969.72;4931208;29;20078;-83
2023/08/01 03:17:59;;;;;;;2.33;0.30;;;;;;;15.29;100.00;98958.44;4935844;29;20048;-88
2023/08/01 03:20:26;;;;;;;0.55;0.22;;;;;;;15.31;100.00;98953.06;4926340;29;20126;-84
2023/08/01 03:22:53;;;;;;;0.15;0.15;;;;;;;15.31;100.00;98939.88;4929265;29;20051;-87
2023/08/01 03:25:19;;;;;;;0.75;0.30;;;;;;;15.31;100.00;98935.44;4927728;29;20052;-86
2023/08/01 03:27:46;;;;;;;0.73;0.30;;;;;;;15.30;100.00;98936.38;4932219;29;20046;-86
2023/08/01 03:30:12;;;;;;;0.40;0.20;;;;;;;15.32;100.00;98938.94;4927459;29;20039;-83
2023/08/01 03:32:41;;;;;;;0.20;0.20;;;;;;;15.32;100.00;98926.59;4917297;29;20106;-83
2023/08/01 03:35:08;;;;;;;1.10;0.47;;;;;;;15.32;100.00;98936.31;4913001;29;20404;-84
2023/08/01 03:37:34;;;;;;;0.47;0.10;;;;;;;15.33;100.00;98936.22;4932481;29;20099;-85
2023/08/01 03:40:01;;;;;;;0.68;0.35;;;;;;;15.32;100.00;98933.69;4924047;29;20513;-88
2023/08/01 03:42:28;;;;;;;2.10;0.10;;;;;;;15.32;100.00;98923.97;4934952;29;20103;-86
2023/08/01 03:44:54;;;;;;;1.13;0.25;;;;;;;15.32;100.00;98931.03;4932819;29;20052;-90
2023/08/01 03:47:21;;;;;;;0.20;0.20;;;;;;;15.32;100.00;98931.88;4932795;29;20047;-86
2023/08/01 03:49:48;;;;;;;2.28;0.20;;;;;;;15.32;100.00;98928.41;4930725;29;20044;-83
2023/08/01 03:52:14;;;;;;;0.75;0.30;;;;;;;15.33;100.00;98930.94;4928207;29;20040;-83
2023/08/01 03:54:41;;;;;;;2.95;0.82;;;;;;;15.32;100.00;98923.97;4928276;29;20052;-86
2023/08/01 03:57:07;;;;;;;11.70;0.50;;;;;;;15.31;100.00;98924.06;4916905;29;20048;-89
2023/08/01 03:59:34;;;;;;;0.68;0.32;;;;;;;15.31;100.00;98924.06;4932447;29;20039;-84
2023/08/01 04:02:00;;;;;;;0.22;0.22;;;;;;;15.31;100.00;98919.63;4944422;28;20047;-85
2023/08/01 04:04:28;;;;;;;0.10;0.10;;;;;;;15.29;100.00;98899.56;4933467;29;20035;-84
2023/08/01 04:06:54;;;;;;;0.45;0.10;;;;;;;15.29;100.00;98910.09;4916290;29;20135;-83
2023/08/01 04:09:21;;;;;;;0.40;0.40;;;;;;;15.28;100.00;98913.69;4929795;29;20095;-85
2023/08/01 04:11:47;;;;;;;0.30;0.30;;;;;;;15.26;100.00;98919.03;4923857;29;20127;-86
2023/08/01 04:14:14;;;;;;;2.33;0.30;;;;;;;15.24;100.00;98927.97;4929001;29;20044;-86
2023/08/01 04:16:40;;;;;;;2.35;0.30;;;;;;;15.24;100.00;98933.25;4932758;29;20063;-90
2023/08/01 04:19:07;;;;;;;1.25;0.20;;;;;;;15.21;100.00;98937.75;4912301;29;20048;-87
2023/08/01 04:21:35;;;;;;;0.22;0.20;;;;;;;15.22;100.00;98946.50;4932417;29;20043;-85
2023/08/01 04:24:02;;;;;;;0.65;0.17;;;;;;;15.21;100.00;98943.03;4928459;29;20068;-85
2023/08/01 04:26:28;;;;;;;1.70;0.38;;;;;;;15.23;100.00;98937.69;4913418;29;20724;-90
2023/08/01 04:28:55;;;;;;;1.00;0.30;;;;;;;15.24;100.00;98933.25;4915247;29;20678;-86
2023/08/01 04:31:22;;;;;;;1.65;0.20;;;;;;;15.24;100.00;98936.75;4929824;29;20221;-84
2023/08/01 04:33:48;;;;;;;1.55;0.50;;;;;;;15.26;100.00;98929.59;4933740;29;20051;-84
2023/08/01 04:36:15;;;;;;;0.40;0.40;;;;;;;15.28;100.00;98942.66;4930892;29;20096;-86
2023/08/01 04:38:41;;;;;;;1.10;0.40;;;;;;;15.27;100.00;98935.72;4915046;29;20059;-84
2023/08/01 04:41:08;;;;;;;0.28;0.28;;;;;;;15.27;100.00;98938.38;4925627;29;20123;-87
2023/08/01 04:43:34;;;;;;;1.05;0.28;;;;;;;15.24;100.00;98936.75;4933134;29;20046;-85
2023/08/01 04:46:01;;;;;;;0.47;0.47;;;;;;;15.20;100.00;98936.06;4940030;28;20587;-87
2023/08/01 04:48:27;;;;;;;1.05;0.35;;;;;;;15.16;100.00;98936.31;4918090;29;20043;-85
2023/08/01 04:50:54;;;;;;;2.58;1.17;;;;;;;15.12;100.00;98933.00;4929151;29;20052;-85
2023/08/01 04:53:20;;;;;;;0.75;0.40;;;;;;;15.09;100.00;98935.78;4930019;29;20054;-84
2023/08/01 04:55:47;;;;;;;0.73;0.40;;;;;;;15.10;100.00;98939.28;4929519;29;20584;-84
2023/08/01 04:58:13;;;;;;;1.40;0.80;;;;;;;15.10;100.00;98932.22;4909162;29;20047;-85
2023/08/01 05:00:43;;;;;;;1.23;0.40;;;;;;;15.08;100.00;98928.81;4917511;29;20059;-84
2023/08/01 05:03:12;;;;;;;1.38;0.52;;;;;;;15.10;100.00;98931.38;4927503;29;20048;-85
2023/08/01 05:05:38;;;;;;;2.28;0.55;;;;;;;15.10;100.00;98931.38;4931367;29;20127;-88
2023/08/01 05:08:08;;;;;;;2.17;0.47;;;;;;;15.13;100.00;98933.84;4916578;29;20074;-85
2023/08/01 05:10:34;;;;;;;0.20;0.20;;;;;;;15.16;100.00;98924.00;4925833;29;20047;-84
2023/08/01 05:13:02;;;;;;;0.32;0.30;;;;;;;15.24;100.00;98926.19;4910093;29;20506;-88
2023/08/01 05:15:29;;;;;;;1.38;0.63;;;;;;;15.26;100.00;98936.66;4934111;29;20126;-85
2023/08/01 05:17:55;;;;;;;1.23;0.43;;;;;;;15.30;100.00;98935.53;4915488;29;20058;-83
2023/08/01 05:20:22;;;;;;;0.98;0.30;;;;;;;15.31;100.00;98945.16;4928459;29;20143;-83
2023/08/01 05:22:49;;;;;;;2.75;0.75;;;;;;;15.28;100.00;98942.66;4935924;29;20046;-87
2023/08/01 05:25:15;;;;;;;0.70;0.70;;;;;;;15.35;100.00;98944.03;4916109;29;20104;-84
2023/08/01 05:27:44;;;;;;;0.60;0.60;;;;;;;15.35;100.00;98938.78;4917076;29;20043;-84
2023/08/01 05:30:11;;;;;;;2.38;1.10;;;;;;;15.39;100.00;98950.84;4923057;29;20104;-88
2023/08/01 05:32:40;;;;;;;1.50;0.82;;;;;;;15.45;100.00;98939.94;4927624;29;20039;-84
2023/08/01 05:35:09;;;;;;;0.32;0.32;;;;;;;15.49;100.00;98941.47;4928712;29;20036;-86
2023/08/01 05:37:36;;;;;;;2.05;0.40;;;;;;;15.52;100.00;98937.81;4932649;29;20050;-84
2023/08/01 05:40:06;;;;;;;1.40;0.77;;;;;;;15.56;100.00;98939.34;4933787;29;20134;-85
2023/08/01 05:42:33;;;;;;;3.50;1.00;;;;;;;15.63;100.00;98950.38;4944864;28;20043;-83
2023/08/01 05:44:59;;;;;;;4.28;0.70;;;;;;;15.65;100.00;98938.81;4925527;29;20488;-84
2023/08/01 05:47:26;;;;;;;1.52;0.68;;;;;;;15.68;100.00;98943.06;4931795;29;20054;-85
2023/08/01 05:49:52;;;;;;;4.20;1.48;;;;;;;15.73;100.00;98942.81;4931007;29;20134;-84
2023/08/01 05:52:22;;;;;;;2.38;1.10;;;;;;;15.79;100.00;98950.38;4928893;29;20044;-84
2023/08/01 05:54:49;;;;;;;2.22;0.90;;;;;;;15.84;100.00;98957.09;4921881;29;20038;-84
2023/08/01 05:57:17;;;;;;;1.20;1.10;;;;;;;15.85;100.00;98950.03;4952598;28;20042;-84
2023/08/01 05:59:44;;;;;;;4.38;0.90;;;;;;;15.87;100.00;98956.91;4941275;29;20119;-84
2023/08/01 06:02:10;;;;;;;1.13;1.02;;;;;;;15.96;100.00;98952.06;4934501;29;20076;-86
2023/08/01 06:04:38;;;;;;;1.55;1.25;;;;;;;15.97;100.00;98961.66;4946507;29;20108;-84
2023/08/01 06:07:10;;;;;;;1.42;0.98;;;;;;;16.01;100.00;98965.84;4937367;29;20036;-83
2023/08/01 06:09:37;;;;;;;1.73;1.63;;;;;;;15.95;100.00;98971.47;4939784;29;20589;-84
2023/08/01 06:12:04;;;;;;;1.88;1.77;;;;;;;15.91;100.00;98969.94;4911955;29;20061;-83
2023/08/01 06:14:35;;;;;;;1.92;1.75;;;;;;;15.88;100.00;98971.81;4931572;29;20516;-85
2023/08/01 06:17:01;;;;;;;3.72;1.80;;;;;;;15.91;100.00;98972.59;4918841;29;20123;-83
2023/08/01 06:19:28;;;;;;;2.28;1.48;;;;;;;15.91;100.00;98962.03;4916777;29;20624;-88
2023/08/01 06:21:56;;;;;;;1.95;1.85;;;;;;;15.85;100.00;98968.50;4929584;29;20926;-85
2023/08/01 06:24:23;;;;;;;2.50;2.30;;;;;;;15.83;100.00;98973.03;4929263;29;20058;-86
2023/08/01 06:26:50;;;;;;;8.10;2.38;;;;;;;15.82;100.00;98966.88;4932074;29;20114;-85
2023/08/01 06:29:17;;;;;;;5.78;2.55;;;;;;;15.81;100.00;98964.34;4930465;29;20044;-87
2023/08/01 06:31:44;;;;;;;2.63;1.75;;;;;;;15.78;100.00;98962.69;4932829;29;20071;-84
2023/08/01 06:34:10;;;;;;;2.67;2.00;;;;;;;15.74;100.00;98970.88;4931193;29;20506;-83
2023/08/01 06:36:37;;;;;;;4.20;2.45;;;;;;;15.77;100.00;98974.19;4927760;29;20063;-84
2023/08/01 06:39:04;;;;;;;4.72;2.10;;;;;;;15.81;100.00;98973.13;4931756;29;20059;-83
2023/08/01 06:41:31;;;;;;;2.97;2.35;;;;;;;15.88;100.00;98963.06;4931769;29;20443;-83
2023/08/01 06:43:57;;;;;;;2.47;2.28;;;;;;;15.86;100.00;98963.13;4925109;29;20047;-89
2023/08/01 06:46:27;;;;;;;2.90;2.10;;;;;;;15.85;100.00;98966.72;4912328;29;20576;-88
2023/08/01 06:48:53;;;;;;;4.65;1.95;;;;;;;15.86;100.00;98973.69;4929883;29;20122;-85
2023/08/01 06:51:22;;;;;;;4.57;2.40;;;;;;;15.87;100.00;98985.09;4911711;29;20044;-89
2023/08/01 06:53:49;;;;;;;4.05;3.63;;;;;;;15.87;100.00;98993.84;4917185;29;20078;-84
2023/08/01 06:56:16;;;;;;;4.22;2.22;;;;;;;15.89;100.00;98991.13;4933713;29;20058;-86
2023/08/01 06:58:42;;;;;;;5.75;2.88;;;;;;;16.00;100.00;98994.00;4910271;29;20046;-86
2023/08/01 07:01:09;;;;;;;5.50;2.88;;;;;;;16.13;100.00;98990.66;4932508;29;20504;-85
2023/08/01 07:03:35;;;;;;;6.00;2.85;;;;;;;16.13;100.00;98994.13;4929057;29;20062;-85
2023/08/01 07:06:05;;;;;;;5.03;3.25;;;;;;;16.15;100.00;98989.63;4930138;29;20044;-83
2023/08/01 07:08:32;;;;;;;4.10;2.65;;;;;;;16.29;100.00;98999.34;4915705;29;20045;-85
2023/08/01 07:11:00;;;;;;;6.35;3.03;;;;;;;16.44;100.00;98994.97;4919954;29;20056;-84
2023/08/01 07:13:27;;;;;;;7.28;3.47;;;;;;;16.52;100.00;98995.34;4936697;29;20043;-84
2023/08/01 07:15:55;;;;;;;5.30;3.40;;;;;;;16.51;100.00;99000.72;4937522;29;20043;-86
2023/08/01 07:18:22;;;;;;;4.28;3.05;;;;;;;16.52;100.00;99011.19;4935700;29;20142;-86
2023/08/01 07:20:49;;;;;;;6.28;2.92;;;;;;;16.59;100.00;99003.75;4918969;29;20054;-84
2023/08/01 07:23:15;;;;;;;5.47;3.28;;;;;;;16.60;100.00;99002.81;4929753;29;20134;-91
2023/08/01 07:25:42;;;;;;;5.65;3.78;;;;;;;16.59;100.00;99016.94;4922212;29;20076;-86
2023/08/01 07:28:08;;;;;;;5.97;4.13;;;;;;;16.57;100.00;99012.69;4938121;29;20047;-83
2023/08/01 07:30:35;;;;;;;7.68;5.05;;;;;;;16.64;100.00;99019.34;4938065;29;20048;-84
2023/08/01 07:33:04;;;;;;;7.22;4.07;;;;;;;16.74;100.00;99007.28;4938151;29;20051;-83
2023/08/01 07:35:30;;;;;;;6.55;4.40;;;;;;;16.93;100.00;99012.28;4938823;29;20049;-83
2023/08/01 07:37:58;;;;;;;9.45;4.22;;;;;;;17.24;100.00;99010.38;4922821;29;20074;-83
2023/08/01 07:40:25;;;;;;;9.75;3.90;;;;;;;17.42;100.00;99018.13;4939605;29;20149;-85
2023/08/01 07:42:55;;;;;;;3.78;3.33;;;;;;;17.69;100.00;99010.19;4940336;29;20035;-84
2023/08/01 07:45:22;;;;;;;5.93;4.18;;;;;;;17.71;100.00;99018.03;4944662;29;20089;-84
2023/08/01 07:47:51;;;;;;;9.57;4.63;;;;;;;17.61;100.00;99009.84;4938065;29;20051;-83
2023/08/01 07:50:18;;;;;;;5.68;4.55;;;;;;;17.48;100.00;99023.00;4947253;29;20107;-84
2023/08/01 07:52:44;;;;;;;9.30;3.55;;;;;;;17.37;100.00;99013.09;4953803;28;20070;-83
2023/08/01 07:55:11;;;;;;;7.32;4.15;;;;;;;17.43;100.00;99020.66;4929122;29;20055;-84
2023/08/01 07:57:37;;;;;;;6.65;4.38;;;;;;;17.53;100.00;99016.47;4954150;28;20046;-83
2023/08/01 08:00:06;;;;;;;4.07;3.47;;;;;;;17.76;100.00;99019.44;4974763;28;20098;-83
2023/08/01 08:02:32;;;;;;;5.90;3.90;;;;;;;17.93;100.00;99023.66;4945238;28;20517;-83
2023/08/01 08:04:59;;;;;;;6.75;4.03;;;;;;;18.09;100.00;99017.34;4930210;28;20051;-84
2023/08/01 08:07:27;;;;;;;5.40;3.65;;;;;;;18.44;100.00;99024.72;4945234;29;20059;-84
2023/08/01 08:09:55;;;;;;;5.18;3.80;;;;;;;18.30;100.00;99026.53;4943850;28;20050;-82
2023/08/01 08:12:23;;;;;;;7.25;3.72;;;;;;;18.67;98.38;99001.97;4943143;28;20074;-83
2023/08/01 08:14:50;;;;;;;7.65;3.85;;;;;;;19.50;94.93;99019.16;4949073;28;20049;-86
2023/08/01 08:17:16;;;;;;;5.63;2.70;;;;;;;19.88;91.50;99020.84;4937530;29;20043;-83
2023/08/01 08:19:43;;;;;;;4.38;2.97;;;;;;;20.24;88.68;99013.75;4943330;28;20035;-84
2023/08/01 08:22:09;;;;;;;7.40;3.85;;;;;;;19.91;89.99;99027.75;4940313;29;20043;-88
2023/08/01 08:24:36;;;;;;;7.70;3.08;;;;;;;19.38;91.16;99023.53;4936428;29;20031;-83
2023/08/01 08:27:03;;;;;;;5.57;2.78;;;;;;;19.26;91.66;99027.06;4932059;29;20058;-86
2023/08/01 08:29:32;;;;;;;4.47;2.90;;;;;;;19.24;90.72;99005.09;4921037;29;20054;-84
2023/08/01 08:32:02;;;;;;;7.70;2.67;;;;;;;18.88;92.04;99017.31;4936560;28;20051;-87
2023/08/01 08:34:31;;;;;;;7.65;3.25;;;;;;;18.73;94.58;99014.78;4937365;29;20483;-83
2023/08/01 08:36:58;;;;;;;9.55;2.67;;;;;;;18.57;97.53;99012.34;4941906;29;20101;-84
2023/08/01 08:39:26;;;;;;;8.57;2.85;;;;;;;18.47;96.38;99016.56;4907017;28;20059;-88
2023/08/01 08:41:55;;;;;;;2.92;2.65;;;;;;;19.34;94.28;99009.63;4934859;28;20078;-84
2023/08/01 08:44:21;;;;;;;3.85;2.35;;;;;;;20.38;89.26;99014.53;4941505;28;20450;-83
2023/08/01 08:46:53;;;;;;;6.65;2.58;;;;;;;20.44;88.51;99014.03;4941437;29;20069;-83
2023/08/01 08:49:21;;;;;;;4.07;2.00;;;;;;;19.96;88.55;99014.97;4938648;29;20048;-84
2023/08/01 08:51:52;;;;;;;2.15;1.90;;;;;;;20.28;88.91;99015.19;4937487;29;20398;-84
2023/08/01 08:54:20;;;;;;;4.88;2.45;;;;;;;20.20;87.94;99004.31;4937711;29;20036;-84
2023/08/01 08:56:47;;;;;;;7.47;2.50;;;;;;;19.63;91.08;99017.31;4945301;28;20476;-84
2023/08/01 08:59:14;;;;;;;4.53;2.40;;;;;;;19.46;92.39;99010.59;4943457;29;20090;-83
2023/08/01 09:01:43;;;;;;;3.15;2.10;;;;;;;20.53;90.04;99017.81;4943705;29;20077;-84
2023/08/01 09:04:10;;;;;;;5.65;2.53;;;;;;;22.26;81.17;99009.41;4942786;29;20047;-83
2023/08/01 09:06:50;;;;;;;2.65;2.40;;;;;;;23.12;78.86;99009.19;4920897;29;20050;-83
2023/08/01 09:09:18;;;;;;;4.45;2.10;;;;;;;23.60;74.95;99005.00;4925035;29;20048;-84
2023/08/01 09:11:50;;;;;;;3.75;2.35;;;;;;;23.83;72.15;99010.09;4939290;28;20039;-83
2023/08/01 09:14:19;;;;;;;2.97;2.15;;;;;;;23.76;73.02;99015.97;4938313;29;20095;-84
2023/08/01 09:16:47;;;;;;;3.65;1.90;;;;;;;22.91;75.65;99017.25;4941719;28;20103;-84
2023/08/01 09:19:19;;;;;;;3.10;2.35;;;;;;;23.17;74.15;99014.19;4935315;29;20051;-83
2023/08/01 09:21:47;;;;;;;4.78;2.10;;;;;;;23.47;72.47;99018.63;4939374;29;20039;-82
2023/08/01 09:24:20;;;;;;;3.63;2.20;;;;;;;22.81;74.43;99019.88;4935423;29;20044;-85
2023/08/01 09:26:50;;;;;;;3.40;2.13;;;;;;;21.94;76.82;99024.44;4941481;29;20039;-82
2023/08/01 09:29:18;;;;;;;2.10;1.60;;;;;;;22.35;73.76;99024.59;4937669;29;20050;-83
2023/08/01 09:31:45;;;;;;;1.00;1.00;;;;;;;23.73;70.56;99026.13;4953442;28;20482;-83
2023/08/01 09:34:25;;;;;;;1.92;1.50;;;;;;;25.04;63.40;99023.91;4921899;28;20503;-86
2023/08/01 09:36:59;;;;;;;2.63;1.58;;;;;;;24.13;64.01;99032.38;4934156;29;20109;-84
2023/08/01 09:39:26;;;;;;;1.75;1.50;;;;;;;24.65;63.09;99027.53;4936803;28;20146;-82
2023/08/01 09:42:01;;;;;;;3.08;1.38;;;;;;;25.06;60.30;99028.13;4919719;29;20121;-85
2023/08/01 09:44:30;;;;;;;4.72;1.50;;;;;;;25.99;56.73;99029.06;4951392;28;20499;-84
2023/08/01 09:47:04;;;;;;;1.35;1.25;;;;;;;24.25;60.93;99040.09;4932156;29;20539;-83
2023/08/01 09:49:36;;;;;;;2.42;1.52;;;;;;;23.28;64.44;99036.28;4934399;29;20359;-85
2023/08/01 09:52:06;;;;;;;2.00;1.20;;;;;;;23.51;63.05;99029.88;4932259;29;20527;-84
2023/08/01 09:54:33;;;;;;;2.85;1.33;;;;;;;24.88;58.84;99027.22;4949112;28;20043;-84
2023/08/01 09:57:04;;;;;;;3.83;1.70;;;;;;;26.32;53.98;99021.31;4954997;28;20039;-87
2023/08/01 09:59:31;;;;;;;1.75;1.30;;;;;;;26.02;52.73;99031.41;4947961;28;20043;-84
2023/08/01 10:02:04;;;;;;;2.75;1.25;;;;;;;24.80;54.46;99038.66;4949954;29;20035;-82
2023/08/01 10:04:33;;;;;;;;;;;;;;;23.42;57.59;99034.19;4944072;29;20047;-82
2023/08/01 10:07:08;;;;;;;4.28;1.38;;;;;;;23.12;60.27;99036.72;4936613;29;19929;-83
2023/08/01 10:09:36;;;;;;;2.33;1.50;;;;;;;23.69;59.20;99041.59;4958294;29;20039;-87
2023/08/01 10:12:04;;;;;;;1.95;1.25;;;;;;;22.84;59.69;99029.44;4952287;29;20117;-85
2023/08/01 10:14:33;;;;;;;1.98;0.85;;;;;;;21.93;61.45;99037.88;4957827;29;20051;-85
2023/08/01 10:17:00;;;;;;;2.58;1.30;;;;;;;22.07;61.94;99039.38;4950557;29;20094;-89
2023/08/01 10:19:28;;;;;;;2.40;1.15;;;;;;;21.81;61.38;99037.03;4939836;29;20458;-84
2023/08/01 10:21:55;;;;;;;2.88;1.08;;;;;;;21.66;61.89;99041.81;4945008;29;20047;-83
2023/08/01 10:24:25;;;;;;;3.95;2.15;;;;;;;22.45;60.07;99044.22;4936849;28;20063;-82
2023/08/01 10:26:52;;;;;;;3.45;1.25;;;;;;;23.66;56.64;99039.16;4926258;29;20429;-83
2023/08/01 10:29:18;;;;;;;2.05;0.98;;;;;;;24.05;55.17;99046.44;4937235;29;20118;-83
2023/08/01 10:31:53;;;;;;;2.47;1.27;;;;;;;22.83;58.34;99038.41;4923354;29;20053;-83
2023/08/01 10:34:21;;;;;;;2.97;1.30;;;;;;;21.97;62.12;99044.66;4941060;29;20130;-84
2023/08/01 10:36:57;;;;;;;2.35;1.30;;;;;;;22.51;59.94;99047.34;4912134;29;20079;-84
2023/08/01 10:39:28;;;;;;;1.50;0.88;;;;;;;24.11;55.11;99035.19;4920806;29;20062;-83
2023/08/01 10:42:05;;;;;;;2.85;1.70;;;;;;;24.70;53.81;99037.81;4939632;29;20066;-83
2023/08/01 10:44:34;;;;;;;1.92;1.10;;;;;;;25.72;51.50;99025.41;4934599;29;20125;-86
2023/08/01 10:47:04;;;;;;;1.85;1.33;;;;;;;26.55;48.81;99018.97;4928024;29;20436;-83
2023/08/01 10:49:42;;;;;;;1.70;1.48;;;;;;;24.82;51.90;99009.91;4929947;29;20043;-82
2023/08/01 10:52:30;;;;;;;2.95;1.10;;;;;;;25.89;50.22;99029.97;4924524;29;20051;-83
2023/08/01 10:55:05;;;;;;;4.13;0.93;;;;;;;24.50;51.51;99028.97;4937079;29;20047;-83
2023/08/01 10:57:34;;;;;;;2.17;1.10;;;;;;;23.23;55.37;99035.84;4940679;29;20047;-86
2023/08/01 11:00:02;;;;;;;4.75;0.82;;;;;;;23.83;54.57;99036.81;4933555;29;20039;-82
2023/08/01 11:02:30;;;;;;;1.75;1.25;;;;;;;25.36;51.45;99033.41;4939106;29;20114;-87
2023/08/01 11:05:10;;;;;;;2.53;0.95;;;;;;;26.87;47.30;99023.75;4943188;29;20071;-82
2023/08/01 11:07:36;;;;;;;3.17;1.42;;;;;;;25.97;47.41;99023.00;4914552;29;20465;-85
2023/08/01 11:10:13;;;;;;;3.50;1.15;;;;;;;24.53;51.83;99023.31;4936980;29;20035;-82
2023/08/01 11:12:45;;;;;;;1.58;1.40;;;;;;;24.01;53.72;99029.81;4934307;29;20043;-83
2023/08/01 11:15:14;;;;;;;;;;;;;;;23.42;55.40;99037.69;4940684;29;20563;-86
2023/08/01 11:17:44;;;;;;;1.65;1.52;;;;;;;23.62;55.57;99037.75;4924297;29;19923;-82
2023/08/01 11:20:12;;;;;;;3.90;1.08;;;;;;;23.88;54.55;99035.41;4940967;29;20042;-83
2023/08/01 11:23:00;;;;;;;5.07;1.30;;;;;;;24.67;51.70;99040.81;4901762;29;20058;-82
2023/08/01 11:25:43;;;;;;;4.75;0.88;;;;;;;25.01;49.48;99049.16;4948531;29;20047;-84
2023/08/01 11:28:17;;;;;;;1.60;1.25;;;;;;;24.19;50.84;99055.88;4932593;29;20483;-82
2023/08/01 11:30:47;;;;;;;1.42;1.20;;;;;;;22.45;55.48;99044.22;4944982;28;20049;-86
2023/08/01 11:33:23;;;;;;;3.45;1.23;;;;;;;21.41;59.26;99073.03;4959055;28;20039;-83